createdAt,value
2017-09-19T00:01:34.107Z,101056.89
2017-09-19T00:04:01.876Z,101059.02
2017-09-19T00:06:29.517Z,101060.64
2017-09-19T00:08:57.122Z,101063.47
2017-09-19T00:11:24.801Z,101062.00
2017-09-19T00:13:52.402Z,101061.73
2017-09-19T00:16:20.028Z,101063.08
2017-09-19T00:18:47.651Z,101066.70
2017-09-19T00:21:15.286Z,101063.08
2017-09-19T00:23:42.934Z,101066.84
2017-09-19T00:26:10.610Z,101066.45
2017-09-19T00:28:38.222Z,101071.14
2017-09-19T00:31:05.863Z,101064.95
2017-09-19T00:33:33.474Z,101067.09
2017-09-19T00:36:01.251Z,101060.91
2017-09-19T00:38:28.854Z,101059.71
2017-09-19T00:40:57.528Z,101056.88
2017-09-19T00:43:25.702Z,101059.02
2017-09-19T00:45:53.436Z,101052.30
2017-09-19T00:48:21.212Z,101056.61
2017-09-19T00:50:48.950Z,101049.88
2017-09-19T00:53:16.643Z,101044.50
2017-09-19T00:55:44.256Z,101048.95
2017-09-19T00:58:11.995Z,101052.05
2017-09-19T01:00:39.738Z,101048.82
2017-09-19T01:03:07.416Z,101052.31
2017-09-19T01:05:35.094Z,101047.62
2017-09-19T01:08:02.744Z,101045.86
2017-09-19T01:10:30.359Z,101047.47
2017-09-19T01:12:57.978Z,101041.69
2017-09-19T01:15:25.594Z,101045.34
2017-09-19T01:17:53.239Z,101041.55
2017-09-19T01:20:20.834Z,101044.10
2017-09-19T01:22:48.459Z,101046.14
2017-09-19T01:25:16.038Z,101047.19
2017-09-19T01:27:43.751Z,101047.88
2017-09-19T01:30:11.369Z,101044.13
2017-09-19T01:32:39.038Z,101042.50
2017-09-19T01:35:06.663Z,101044.23
2017-09-19T01:37:34.341Z,101042.78
2017-09-19T01:40:01.939Z,101041.69
2017-09-19T01:42:29.615Z,101041.94
2017-09-19T01:44:57.259Z,101041.56
2017-09-19T01:47:24.862Z,101044.64
2017-09-19T01:49:52.507Z,101043.54
2017-09-19T01:52:20.153Z,101043.69
2017-09-19T01:54:47.776Z,101043.69
2017-09-19T01:57:15.390Z,101042.77
2017-09-19T01:59:43.040Z,101040.59
2017-09-19T02:02:10.642Z,101041.00
2017-09-19T02:04:38.348Z,101039.39
2017-09-19T02:07:06.044Z,101036.05
2017-09-19T02:09:33.689Z,101037.92
2017-09-19T02:12:01.312Z,101037.27
2017-09-19T02:14:28.968Z,101031.62
2017-09-19T02:16:56.568Z,101042.37
2017-09-19T02:19:24.233Z,101034.28
2017-09-19T02:21:51.854Z,101036.98
2017-09-19T02:24:19.462Z,101040.07
2017-09-19T02:26:47.111Z,101041.00
2017-09-19T02:29:14.711Z,101040.34
2017-09-19T02:31:42.352Z,101041.42
2017-09-19T02:34:09.967Z,101044.49
2017-09-19T02:36:37.926Z,101040.47
2017-09-19T02:39:06.168Z,101036.05
2017-09-19T02:41:34.031Z,101038.47
2017-09-19T02:44:01.842Z,101043.16
2017-09-19T02:46:30.013Z,101040.34
2017-09-19T02:48:57.982Z,101031.88
2017-09-19T02:51:25.851Z,101040.22
2017-09-19T02:53:53.615Z,101035.77
2017-09-19T02:56:22.402Z,101038.31
2017-09-19T02:58:50.470Z,101036.04
2017-09-19T03:01:18.119Z,101043.17
2017-09-19T03:03:45.730Z,101038.31
2017-09-19T03:06:13.383Z,101040.34
2017-09-19T03:08:40.991Z,101036.31
2017-09-19T03:11:08.619Z,101037.66
2017-09-19T03:13:36.259Z,101030.92
2017-09-19T03:16:03.882Z,101031.20
2017-09-19T03:18:31.495Z,101033.20
2017-09-19T03:20:59.135Z,101033.06
2017-09-19T03:23:26.763Z,101035.48
2017-09-19T03:25:54.390Z,101042.62
2017-09-19T03:28:21.995Z,101039.66
2017-09-19T03:30:49.815Z,101036.45
2017-09-19T03:33:18.104Z,101037.11
2017-09-19T03:35:46.383Z,101038.32
2017-09-19T03:38:14.104Z,101034.44
2017-09-19T03:40:43.257Z,101038.32
2017-09-19T03:43:11.676Z,101037.65
2017-09-19T03:45:40.526Z,101037.11
2017-09-19T03:48:08.258Z,101039.25
2017-09-19T03:50:37.185Z,101037.77
2017-09-19T03:53:06.977Z,101041.16
2017-09-19T03:55:34.884Z,101039.67
2017-09-19T03:58:02.746Z,101040.22
2017-09-19T04:00:30.600Z,101036.70
2017-09-19T04:02:58.572Z,101044.50
2017-09-19T04:05:26.643Z,101042.63
2017-09-19T04:07:57.483Z,101041.80
2017-09-19T04:10:25.127Z,101043.97
2017-09-19T04:12:52.755Z,101046.92
2017-09-19T04:15:20.359Z,101048.55
2017-09-19T04:17:48.106Z,101047.19
2017-09-19T04:20:15.722Z,101047.20
2017-09-19T04:22:43.347Z,101047.75
2017-09-19T04:25:11.041Z,101046.92
2017-09-19T04:27:38.640Z,101049.89
2017-09-19T04:30:06.299Z,101048.83
2017-09-19T04:32:33.931Z,101049.90
2017-09-19T04:35:01.592Z,101054.86
2017-09-19T04:37:29.215Z,101051.09
2017-09-19T04:39:56.855Z,101059.83
2017-09-19T04:42:24.473Z,101062.23
2017-09-19T04:44:52.105Z,101059.28
2017-09-19T04:47:19.715Z,101059.15
2017-09-19T04:49:47.364Z,101062.55
2017-09-19T04:52:15.015Z,101065.36
2017-09-19T04:54:42.651Z,101067.63
2017-09-19T04:57:10.269Z,101070.20
2017-09-19T04:59:37.891Z,101069.11
2017-09-19T05:02:05.492Z,101071.25
2017-09-19T05:04:33.147Z,101078.25
2017-09-19T05:07:00.756Z,101081.86
2017-09-19T05:09:28.459Z,101083.22
2017-09-19T05:11:56.991Z,101087.25
2017-09-19T05:14:24.899Z,101089.53
2017-09-19T05:16:53.123Z,101090.45
2017-09-19T05:19:32.050Z,101091.00
2017-09-19T05:22:01.304Z,101083.48
2017-09-19T05:24:34.840Z,101083.86
2017-09-19T05:27:02.511Z,101089.66
2017-09-19T05:29:30.138Z,101090.05
2017-09-19T05:31:57.833Z,101093.26
2017-09-19T05:34:25.500Z,101096.22
2017-09-19T05:36:53.134Z,101100.67
2017-09-19T05:39:20.826Z,101096.48
2017-09-19T05:41:48.588Z,101090.98
2017-09-19T05:44:16.223Z,101093.81
2017-09-19T05:46:43.903Z,101094.63
2017-09-19T05:49:11.613Z,101094.37
2017-09-19T05:51:39.401Z,101091.52
2017-09-19T05:54:07.013Z,101099.02
2017-09-19T05:56:34.671Z,101101.98
2017-09-19T05:59:02.303Z,101108.44
2017-09-19T06:01:29.979Z,101105.23
2017-09-19T06:03:57.590Z,101110.60
2017-09-19T06:06:25.266Z,101116.13
2017-09-19T06:09:04.555Z,101120.80
2017-09-19T06:11:32.224Z,101120.29
2017-09-19T06:13:59.844Z,101114.64
2017-09-19T06:16:27.542Z,101118.55
2017-09-19T06:18:55.158Z,101121.49
2017-09-19T06:21:22.817Z,101126.47
2017-09-19T06:23:50.466Z,101124.33
2017-09-19T06:26:18.332Z,101122.19
2017-09-19T06:28:45.955Z,101123.80
2017-09-19T06:31:13.632Z,101129.58
2017-09-19T06:33:41.285Z,101130.78
2017-09-19T06:36:09.082Z,101129.84
2017-09-19T06:38:36.737Z,101126.88
2017-09-19T06:41:04.377Z,101127.95
2017-09-19T06:43:32.039Z,101131.45
2017-09-19T06:45:59.710Z,101129.44
2017-09-19T06:48:27.419Z,101135.91
2017-09-19T06:50:55.075Z,101136.15
2017-09-19T06:53:22.745Z,101137.63
2017-09-19T06:55:50.398Z,101141.02
2017-09-19T06:58:18.040Z,101149.48
2017-09-19T07:00:45.748Z,101145.57
2017-09-19T07:03:13.374Z,101148.80
2017-09-19T07:05:41.025Z,101162.36
2017-09-19T07:08:08.661Z,101158.30
2017-09-19T07:10:36.302Z,101157.50
2017-09-19T07:13:03.903Z,101166.63
2017-09-19T07:15:31.592Z,101169.33
2017-09-19T07:17:59.186Z,101176.80
2017-09-19T07:20:26.826Z,101175.28
2017-09-19T07:22:54.463Z,101173.84
2017-09-19T07:25:22.151Z,101168.89
2017-09-19T07:27:49.783Z,101172.41
2017-09-19T07:30:17.473Z,101173.66
2017-09-19T07:32:45.139Z,101174.88
2017-09-19T07:35:12.782Z,101179.99
2017-09-19T07:37:40.396Z,101187.56
2017-09-19T07:40:08.090Z,101185.69
2017-09-19T07:42:36.339Z,101189.14
2017-09-19T07:45:04.010Z,101196.97
2017-09-19T07:47:31.664Z,101202.86
2017-09-19T07:49:59.350Z,101198.83
2017-09-19T07:52:26.976Z,101200.03
2017-09-19T07:54:54.635Z,101201.66
2017-09-19T07:57:22.339Z,101203.69
2017-09-19T07:59:50.050Z,101205.16
2017-09-19T08:02:17.678Z,101205.73
2017-09-19T08:04:45.407Z,101212.83
2017-09-19T08:07:13.018Z,101208.55
2017-09-19T08:09:40.699Z,101217.42
2017-09-19T08:12:08.367Z,101217.16
2017-09-19T08:14:35.986Z,101217.00
2017-09-19T08:17:05.294Z,101215.53
2017-09-19T08:19:32.942Z,101221.19
2017-09-19T08:22:00.571Z,101219.58
2017-09-19T08:24:28.180Z,101220.66
2017-09-19T08:26:55.879Z,101226.14
2017-09-19T08:29:23.508Z,101231.54
2017-09-19T08:31:51.303Z,101241.19
2017-09-19T08:34:18.917Z,101235.95
2017-09-19T08:36:46.552Z,101235.17
2017-09-19T08:39:14.160Z,101229.26
2017-09-19T08:41:41.802Z,101228.86
2017-09-19T08:44:09.399Z,101235.45
2017-09-19T08:46:37.043Z,101236.02
2017-09-19T08:49:04.653Z,101245.30
2017-09-19T08:51:32.287Z,101237.52
2017-09-19T08:53:59.894Z,101236.03
2017-09-19T08:56:27.535Z,101240.46
2017-09-19T08:58:55.138Z,101243.14
2017-09-19T09:01:22.758Z,101248.13
2017-09-19T09:03:50.362Z,101248.17
2017-09-19T09:06:18.017Z,101250.91
2017-09-19T09:08:45.622Z,101256.81
2017-09-19T09:11:13.267Z,101258.42
2017-09-19T09:13:40.866Z,101252.77
2017-09-19T09:16:08.506Z,101253.06
2017-09-19T09:18:36.110Z,101255.74
2017-09-19T09:21:03.727Z,101256.55
2017-09-19T09:23:31.428Z,101257.48
2017-09-19T09:25:59.039Z,101259.54
2017-09-19T09:28:26.671Z,101265.70
2017-09-19T09:30:54.255Z,101266.92
2017-09-19T09:33:21.895Z,101260.73
2017-09-19T09:35:49.511Z,101266.77
2017-09-19T09:38:17.322Z,101274.03
2017-09-19T09:40:44.975Z,101266.91
2017-09-19T09:43:12.639Z,101273.23
2017-09-19T09:45:40.287Z,101266.12
2017-09-19T09:48:07.893Z,101264.92
2017-09-19T09:50:35.524Z,101267.56
2017-09-19T09:53:03.179Z,101267.03
2017-09-19T09:55:30.806Z,101266.51
2017-09-19T09:57:58.442Z,101269.05
2017-09-19T10:00:26.075Z,101266.47
2017-09-19T10:02:53.680Z,101270.66
2017-09-19T10:05:21.339Z,101267.02
2017-09-19T10:07:48.949Z,101276.31
2017-09-19T10:10:16.598Z,101268.64
2017-09-19T10:12:44.206Z,101274.60
2017-09-19T10:15:11.854Z,101273.90
2017-09-19T10:17:39.446Z,101275.26
2017-09-19T10:20:07.122Z,101281.59
2017-09-19T10:22:34.729Z,101281.16
2017-09-19T10:25:02.383Z,101278.20
2017-09-19T10:27:29.989Z,101279.55
2017-09-19T10:29:57.618Z,101284.37
2017-09-19T10:32:25.227Z,101282.59
2017-09-19T10:34:52.875Z,101289.03
2017-09-19T10:37:20.617Z,101293.08
2017-09-19T10:39:48.242Z,101296.70
2017-09-19T10:42:15.851Z,101297.25
2017-09-19T10:44:43.588Z,101299.03
2017-09-19T10:47:11.180Z,101296.89
2017-09-19T10:49:38.827Z,101304.44
2017-09-19T10:52:06.470Z,101308.08
2017-09-19T10:54:34.169Z,101305.55
2017-09-19T10:57:01.805Z,101303.82
2017-09-19T10:59:29.423Z,101305.94
2017-09-19T11:01:57.050Z,101307.56
2017-09-19T11:04:24.648Z,101303.51
2017-09-19T11:06:52.281Z,101304.42
2017-09-19T11:09:19.862Z,101303.73
2017-09-19T11:11:47.517Z,101301.94
2017-09-19T11:14:15.103Z,101299.96
2017-09-19T11:16:42.733Z,101307.39
2017-09-19T11:19:10.351Z,101306.39
2017-09-19T11:21:37.983Z,101306.61
2017-09-19T11:24:05.606Z,101312.67
2017-09-19T11:26:33.238Z,101311.75
2017-09-19T11:29:00.844Z,101313.89
2017-09-19T11:31:28.483Z,101314.11
2017-09-19T11:33:56.091Z,101308.06
2017-09-19T11:36:23.777Z,101308.88
2017-09-19T11:38:51.390Z,101306.59
2017-09-19T11:41:19.030Z,101302.69
2017-09-19T11:43:46.631Z,101303.66
2017-09-19T11:46:14.278Z,101310.54
2017-09-19T11:48:41.890Z,101318.77
2017-09-19T11:51:09.535Z,101315.37
2017-09-19T11:53:37.155Z,101320.94
2017-09-19T11:56:04.782Z,101322.14
2017-09-19T11:58:32.395Z,101320.52
2017-09-19T12:01:00.046Z,101318.51
2017-09-19T12:03:27.656Z,101321.06
2017-09-19T12:05:55.268Z,101323.76
2017-09-19T12:08:22.900Z,101320.27
2017-09-19T12:10:50.495Z,101325.39
2017-09-19T12:13:18.243Z,101322.94
2017-09-19T12:15:45.919Z,101324.42
2017-09-19T12:18:13.534Z,101326.70
2017-09-19T12:20:41.195Z,101322.94
2017-09-19T12:23:08.812Z,101324.70
2017-09-19T12:25:36.438Z,101320.13
2017-09-19T12:28:04.067Z,101324.69
2017-09-19T12:30:31.686Z,101322.14
2017-09-19T12:32:59.319Z,101323.88
2017-09-19T12:35:26.935Z,101330.62
2017-09-19T12:37:54.560Z,101333.18
2017-09-19T12:40:22.172Z,101330.48
2017-09-19T12:42:49.827Z,101333.84
2017-09-19T12:45:17.459Z,101332.11
2017-09-19T12:47:45.099Z,101336.26
2017-09-19T12:50:12.725Z,101339.92
2017-09-19T12:52:40.401Z,101330.45
2017-09-19T12:55:08.047Z,101333.14
2017-09-19T12:57:35.694Z,101329.52
2017-09-19T13:00:03.294Z,101336.67
2017-09-19T13:02:30.954Z,101326.16
2017-09-19T13:04:58.575Z,101337.61
2017-09-19T13:07:26.211Z,101335.73
2017-09-19T13:09:53.815Z,101331.14
2017-09-19T13:12:21.455Z,101334.11
2017-09-19T13:14:49.061Z,101337.66
2017-09-19T13:17:16.722Z,101333.44
2017-09-19T13:19:44.379Z,101327.34
2017-09-19T13:22:11.976Z,101330.25
2017-09-19T13:24:39.616Z,101331.29
2017-09-19T13:27:07.230Z,101329.47
2017-09-19T13:29:34.927Z,101329.80
2017-09-19T13:32:14.056Z,101329.63
2017-09-19T13:34:41.711Z,101335.77
2017-09-19T13:37:09.315Z,101334.52
2017-09-19T13:39:36.952Z,101342.01
2017-09-19T13:42:04.558Z,101339.97
2017-09-19T13:44:32.206Z,101340.45
2017-09-19T13:46:59.798Z,101339.81
2017-09-19T13:49:27.462Z,101340.66
2017-09-19T13:51:55.043Z,101341.07
2017-09-19T13:54:22.648Z,101342.56
2017-09-19T13:56:50.270Z,101342.98
2017-09-19T13:59:17.891Z,101343.50
2017-09-19T14:01:45.547Z,101343.36
2017-09-19T14:04:13.249Z,101331.19
2017-09-19T14:06:40.883Z,101338.28
2017-09-19T14:09:08.542Z,101340.89
2017-09-19T14:11:36.208Z,101334.51
2017-09-19T14:14:03.806Z,101339.11
2017-09-19T14:16:31.409Z,101332.86
2017-09-19T14:18:59.035Z,101334.17
2017-09-19T14:21:26.646Z,101330.64
2017-09-19T14:23:54.340Z,101327.95
2017-09-19T14:26:21.953Z,101328.36
2017-09-19T14:28:49.588Z,101334.75
2017-09-19T14:31:17.193Z,101333.51
2017-09-19T14:33:44.814Z,101331.21
2017-09-19T14:36:12.426Z,101337.52
2017-09-19T14:38:40.078Z,101329.50
2017-09-19T14:41:07.683Z,101336.22
2017-09-19T14:43:35.311Z,101337.91
2017-09-19T14:46:02.940Z,101338.30
2017-09-19T14:48:30.570Z,101345.71
2017-09-19T14:50:58.168Z,101343.80
2017-09-19T14:53:25.821Z,101342.95
2017-09-19T14:55:53.427Z,101345.05
2017-09-19T14:58:21.034Z,101341.58
2017-09-19T15:00:48.662Z,101346.03
2017-09-19T15:03:16.270Z,101354.03
2017-09-19T15:05:43.903Z,101356.67
2017-09-19T15:08:11.506Z,101360.09
2017-09-19T15:10:39.273Z,101365.86
2017-09-19T15:13:06.887Z,101369.41
2017-09-19T15:15:34.532Z,101371.59
2017-09-19T15:18:02.138Z,101375.78
2017-09-19T15:20:29.796Z,101368.52
2017-09-19T15:22:57.422Z,101380.05
2017-09-19T15:25:25.065Z,101375.73
2017-09-19T15:27:52.764Z,101376.66
2017-09-19T15:30:20.522Z,101378.17
2017-09-19T15:32:48.122Z,101375.95
2017-09-19T15:35:15.770Z,101376.72
2017-09-19T15:37:43.392Z,101382.94
2017-09-19T15:40:10.984Z,101379.83
2017-09-19T15:42:38.632Z,101386.03
2017-09-19T15:45:06.267Z,101390.55
2017-09-19T15:47:33.950Z,101392.58
2017-09-19T15:50:01.566Z,101394.80
2017-09-19T15:52:29.226Z,101389.95
2017-09-19T15:54:56.861Z,101395.80
2017-09-19T15:57:24.490Z,101388.92
2017-09-19T15:59:52.094Z,101390.28
2017-09-19T16:02:19.714Z,101391.84
2017-09-19T16:04:47.318Z,101396.23
2017-09-19T16:07:14.955Z,101401.21
2017-09-19T16:09:42.582Z,101403.28
2017-09-19T16:12:10.209Z,101405.38
2017-09-19T16:14:37.808Z,101408.97
2017-09-19T16:17:05.463Z,101407.38
2017-09-19T16:19:33.130Z,101412.66
2017-09-19T16:22:00.836Z,101412.04
2017-09-19T16:24:28.456Z,101411.41
2017-09-19T16:26:56.083Z,101416.55
2017-09-19T16:29:23.730Z,101413.94
2017-09-19T16:31:51.383Z,101420.56
2017-09-19T16:34:19.068Z,101417.23
2017-09-19T16:36:46.706Z,101423.75
2017-09-19T16:39:14.338Z,101424.38
2017-09-19T16:41:42.060Z,101423.28
2017-09-19T16:44:09.670Z,101424.64
2017-09-19T16:46:37.270Z,101424.16
2017-09-19T16:49:04.898Z,101429.58
2017-09-19T16:51:32.543Z,101422.66
2017-09-19T16:54:00.192Z,101432.60
2017-09-19T16:56:27.807Z,101436.19
2017-09-19T16:58:55.457Z,101436.34
2017-09-19T17:01:23.074Z,101439.73
2017-09-19T17:03:50.699Z,101439.62
2017-09-19T17:06:18.305Z,101438.73
2017-09-19T17:08:45.967Z,101440.01
2017-09-19T17:11:13.577Z,101445.71
2017-09-19T17:13:41.203Z,101441.55
2017-09-19T17:16:08.826Z,101437.47
2017-09-19T17:18:36.469Z,101444.38
2017-09-19T17:21:04.085Z,101447.50
2017-09-19T17:23:31.722Z,101452.25
2017-09-19T17:25:59.326Z,101451.05
2017-09-19T17:28:27.049Z,101459.01
2017-09-19T17:30:54.718Z,101459.56
2017-09-19T17:33:22.364Z,101461.85
2017-09-19T17:35:49.981Z,101465.53
2017-09-19T17:38:17.742Z,101467.44
2017-09-19T17:40:45.402Z,101468.23
2017-09-19T17:43:13.047Z,101468.52
2017-09-19T17:45:40.673Z,101468.27
2017-09-19T17:48:08.336Z,101472.74
2017-09-19T17:50:36.039Z,101471.91
2017-09-19T17:53:03.683Z,101479.77
2017-09-19T17:55:31.372Z,101484.09
2017-09-19T17:57:59.017Z,101485.30
2017-09-19T18:00:26.660Z,101484.74
2017-09-19T18:02:54.371Z,101485.29
2017-09-19T18:05:22.031Z,101483.94
2017-09-19T18:07:50.215Z,101492.56
2017-09-19T18:10:17.875Z,101493.26
2017-09-19T18:12:45.492Z,101499.72
2017-09-19T18:15:13.152Z,101499.99
2017-09-19T18:17:41.127Z,101501.61
2017-09-19T18:20:08.831Z,101505.40
2017-09-19T18:22:37.242Z,101506.59
2017-09-19T18:25:04.908Z,101518.19
2017-09-19T18:27:32.676Z,101520.33
2017-09-19T18:30:00.335Z,101527.84
2017-09-19T18:32:28.092Z,101531.73
2017-09-19T18:34:55.800Z,101525.36
2017-09-19T18:37:23.426Z,101527.08
2017-09-19T18:39:51.087Z,101536.25
2017-09-19T18:42:18.774Z,101529.50
2017-09-19T18:44:46.428Z,101537.56
2017-09-19T18:47:14.035Z,101534.87
2017-09-19T18:49:41.675Z,101535.66
2017-09-19T18:52:09.299Z,101534.83
2017-09-19T18:54:36.973Z,101535.87
2017-09-19T18:57:04.627Z,101533.83
2017-09-19T18:59:32.286Z,101537.44
2017-09-19T19:01:59.917Z,101537.17
2017-09-19T19:04:27.602Z,101537.55
2017-09-19T19:06:55.400Z,101542.55
2017-09-19T19:09:23.052Z,101540.92
2017-09-19T19:11:50.708Z,101539.86
2017-09-19T19:14:18.559Z,101546.96
2017-09-19T19:16:46.162Z,101536.67
2017-09-19T19:19:13.820Z,101545.63
2017-09-19T19:21:41.438Z,101547.09
2017-09-19T19:24:09.247Z,101547.55
2017-09-19T19:26:36.880Z,101549.02
2017-09-19T19:29:04.915Z,101553.60
2017-09-19T19:31:32.617Z,101556.13
2017-09-19T19:34:00.353Z,101549.87
2017-09-19T19:36:28.002Z,101553.77
2017-09-19T19:38:55.723Z,101554.80
2017-09-19T19:41:23.343Z,101563.54
2017-09-19T19:43:51.067Z,101562.00
2017-09-19T19:46:18.715Z,101562.87
2017-09-19T19:48:46.520Z,101559.63
2017-09-19T19:51:14.159Z,101560.90
2017-09-19T19:53:41.800Z,101557.77
2017-09-19T19:56:09.447Z,101555.11
2017-09-19T19:58:37.161Z,101559.39
2017-09-19T20:01:04.792Z,101562.63
2017-09-19T20:03:32.438Z,101566.50
2017-09-19T20:06:00.103Z,101570.92
2017-09-19T20:08:27.751Z,101564.80
2017-09-19T20:10:55.407Z,101575.78
2017-09-19T20:13:23.321Z,101578.89
2017-09-19T20:15:50.982Z,101581.61
2017-09-19T20:18:18.640Z,101582.17
2017-09-19T20:20:46.312Z,101580.55
2017-09-19T20:23:14.112Z,101591.56
2017-09-19T20:25:41.730Z,101592.19
2017-09-19T20:28:09.410Z,101589.91
2017-09-19T20:30:37.036Z,101589.63
2017-09-19T20:33:04.695Z,101586.27
2017-09-19T20:35:32.403Z,101581.02
2017-09-19T20:38:00.110Z,101588.56
2017-09-19T20:40:27.786Z,101591.75
2017-09-19T20:42:55.419Z,101584.97
2017-09-19T20:45:23.061Z,101590.95
2017-09-19T20:47:50.714Z,101598.12
2017-09-19T20:50:18.385Z,101597.48
2017-09-19T20:52:46.007Z,101591.80
2017-09-19T20:55:13.613Z,101593.59
2017-09-19T20:57:41.256Z,101589.73
2017-09-19T21:00:09.003Z,101586.53
2017-09-19T21:02:36.613Z,101588.67
2017-09-19T21:05:10.008Z,101588.20
2017-09-19T21:07:43.203Z,101587.75
2017-09-19T21:10:16.355Z,101582.53
2017-09-19T21:12:49.594Z,101585.73
2017-09-19T21:15:22.871Z,101584.96
2017-09-19T21:17:56.072Z,101582.24
2017-09-19T21:20:23.175Z,101582.21
2017-09-19T21:22:50.850Z,101580.06
2017-09-19T21:25:18.592Z,101582.75
2017-09-19T21:27:46.198Z,101580.00
2017-09-19T21:30:13.865Z,101588.35
2017-09-19T21:32:41.484Z,101590.69
2017-09-19T21:35:09.256Z,101590.18
2017-09-19T21:37:36.874Z,101591.52
2017-09-19T21:40:04.556Z,101583.88
2017-09-19T21:42:32.200Z,101581.70
2017-09-19T21:44:59.835Z,101586.17
2017-09-19T21:47:27.571Z,101584.67
2017-09-19T21:49:55.200Z,101583.39
2017-09-19T21:52:22.824Z,101588.06
2017-09-19T21:54:50.466Z,101581.34
2017-09-19T21:57:18.090Z,101577.70
2017-09-19T21:59:45.730Z,101580.73
2017-09-19T22:02:13.371Z,101582.80
2017-09-19T22:04:41.010Z,101577.92
2017-09-19T22:07:08.672Z,101587.04
2017-09-19T22:09:36.331Z,101584.48
2017-09-19T22:12:03.938Z,101578.54
2017-09-19T22:14:31.563Z,101589.73
2017-09-19T22:16:59.194Z,101592.67
2017-09-19T22:19:26.899Z,101596.28
2017-09-19T22:21:54.514Z,101589.61
2017-09-19T22:24:22.154Z,101593.30
2017-09-19T22:26:49.773Z,101590.88
2017-09-19T22:29:17.391Z,101587.56
2017-09-19T22:31:45.022Z,101587.65
2017-09-19T22:34:12.637Z,101596.28
2017-09-19T22:36:40.274Z,101601.69
2017-09-19T22:39:07.885Z,101593.80
2017-09-19T22:41:35.527Z,101598.57
2017-09-19T22:44:03.130Z,101595.80
2017-09-19T22:46:30.765Z,101593.30
2017-09-19T22:48:58.416Z,101599.00
2017-09-19T22:51:26.033Z,101594.00
2017-09-19T22:53:53.684Z,101591.12
2017-09-19T22:56:21.295Z,101591.54
2017-09-19T22:58:49.038Z,101589.73
2017-09-19T23:01:16.651Z,101600.59
2017-09-19T23:03:44.474Z,101599.52
2017-09-19T23:06:12.095Z,101597.70
2017-09-19T23:08:39.718Z,101598.50
2017-09-19T23:11:07.406Z,101598.66
2017-09-19T23:13:35.004Z,101592.75
2017-09-19T23:16:02.646Z,101598.23
2017-09-19T23:18:30.250Z,101594.25
2017-09-19T23:20:57.880Z,101592.11
2017-09-19T23:23:25.607Z,101594.58
2017-09-19T23:25:53.242Z,101596.68
2017-09-19T23:28:20.846Z,101594.87
2017-09-19T23:30:48.478Z,101593.23
2017-09-19T23:33:16.094Z,101590.24
2017-09-19T23:35:43.713Z,101583.41
2017-09-19T23:38:11.319Z,101578.69
2017-09-19T23:40:39.114Z,101583.34
2017-09-19T23:43:06.719Z,101582.91
2017-09-19T23:45:34.348Z,101583.70
2017-09-19T23:48:01.979Z,101586.76
2017-09-19T23:50:29.609Z,101582.13
2017-09-19T23:52:57.307Z,101582.20
2017-09-19T23:55:24.930Z,101583.93
2017-09-19T23:57:52.529Z,101583.16
